createdAt,value
2019-03-12T00:02:19.462Z,100.00
2019-03-12T00:04:48.945Z,100.00
2019-03-12T00:07:18.244Z,100.00
2019-03-12T00:09:47.480Z,100.00
2019-03-12T00:12:16.977Z,100.00
2019-03-12T00:14:46.217Z,100.00
2019-03-12T00:17:15.792Z,100.00
2019-03-12T00:19:45.027Z,100.00
2019-03-12T00:22:14.248Z,100.00
2019-03-12T00:24:43.440Z,100.00
2019-03-12T00:27:13.512Z,100.00
2019-03-12T00:29:42.743Z,100.00
2019-03-12T00:32:12.310Z,100.00
2019-03-12T00:34:42.167Z,100.00
2019-03-12T00:37:13.691Z,100.00
2019-03-12T00:39:42.895Z,100.00
2019-03-12T00:42:12.169Z,100.00
2019-03-12T00:44:41.407Z,100.00
2019-03-12T00:47:10.874Z,100.00
2019-03-12T00:49:40.395Z,100.00
2019-03-12T00:52:28.816Z,100.00
2019-03-12T00:57:53.731Z,100.00
2019-03-12T01:00:23.001Z,100.00
2019-03-12T01:02:52.535Z,100.00
2019-03-12T01:05:22.054Z,100.00
2019-03-12T01:07:51.613Z,100.00
2019-03-12T01:10:20.822Z,100.00
2019-03-12T01:12:50.050Z,100.00
2019-03-12T01:15:19.542Z,100.00
2019-03-12T01:17:48.756Z,100.00
2019-03-12T01:20:17.957Z,100.00
2019-03-12T01:22:47.185Z,100.00
2019-03-12T01:25:16.461Z,100.00
2019-03-12T01:27:45.953Z,100.00
2019-03-12T01:30:55.358Z,100.00
2019-03-12T01:33:24.858Z,100.00
2019-03-12T01:35:54.122Z,100.00
2019-03-12T01:38:23.333Z,100.00
2019-03-12T01:40:52.523Z,100.00
2019-03-12T01:43:21.736Z,100.00
2019-03-12T01:45:50.956Z,100.00
2019-03-12T01:48:20.208Z,100.00
2019-03-12T01:50:49.393Z,100.00
2019-03-12T01:53:18.639Z,100.00
2019-03-12T01:55:47.838Z,100.00
2019-03-12T01:58:17.051Z,100.00
2019-03-12T02:00:46.277Z,100.00
2019-03-12T02:03:15.513Z,100.00
2019-03-12T02:05:44.733Z,100.00
2019-03-12T02:08:13.968Z,100.00
2019-03-12T02:10:43.177Z,100.00
2019-03-12T02:13:12.425Z,100.00
2019-03-12T02:15:41.880Z,100.00
2019-03-12T02:18:11.111Z,100.00
2019-03-12T02:20:40.305Z,100.00
2019-03-12T02:23:09.521Z,100.00
2019-03-12T02:25:38.715Z,100.00
2019-03-12T02:28:08.224Z,100.00
2019-03-12T02:30:37.435Z,100.00
2019-03-12T02:33:06.747Z,100.00
2019-03-12T02:35:35.954Z,100.00
2019-03-12T02:38:05.241Z,100.00
2019-03-12T02:40:34.409Z,100.00
2019-03-12T02:43:03.621Z,100.00
2019-03-12T02:45:32.839Z,100.00
2019-03-12T02:48:02.070Z,100.00
2019-03-12T02:50:31.249Z,100.00
2019-03-12T02:53:00.475Z,100.00
2019-03-12T02:55:29.667Z,100.00
2019-03-12T02:57:58.881Z,100.00
2019-03-12T03:00:28.063Z,100.00
2019-03-12T03:02:57.274Z,100.00
2019-03-12T03:05:26.610Z,100.00
2019-03-12T03:08:01.556Z,100.00
2019-03-12T03:10:30.817Z,100.00
2019-03-12T03:13:00.049Z,100.00
2019-03-12T03:18:23.736Z,100.00
2019-03-12T03:20:52.933Z,100.00
2019-03-12T03:23:22.154Z,100.00
2019-03-12T03:25:51.334Z,100.00
2019-03-12T03:28:20.884Z,100.00
2019-03-12T03:30:50.108Z,100.00
2019-03-12T03:33:19.322Z,100.00
2019-03-12T03:35:48.524Z,100.00
2019-03-12T03:38:17.720Z,100.00
2019-03-12T03:40:46.941Z,100.00
2019-03-12T03:43:16.149Z,100.00
2019-03-12T03:45:45.396Z,100.00
2019-03-12T03:48:14.616Z,100.00
2019-03-12T03:50:43.869Z,100.00
2019-03-12T03:53:13.065Z,100.00
2019-03-12T03:55:42.302Z,100.00
2019-03-12T03:58:11.521Z,100.00
2019-03-12T04:00:40.753Z,100.00
2019-03-12T04:03:09.959Z,100.00
2019-03-12T04:05:39.205Z,100.00
2019-03-12T04:08:08.401Z,100.00
2019-03-12T04:10:37.636Z,100.00
2019-03-12T04:13:06.838Z,100.00
2019-03-12T04:15:36.339Z,100.00
2019-03-12T04:18:05.520Z,100.00
2019-03-12T04:20:34.748Z,100.00
2019-03-12T04:23:03.965Z,100.00
2019-03-12T04:25:33.196Z,100.00
2019-03-12T04:28:02.415Z,100.00
2019-03-12T04:30:31.641Z,100.00
2019-03-12T04:33:00.837Z,100.00
2019-03-12T04:35:30.169Z,100.00
2019-03-12T04:37:59.442Z,100.00
2019-03-12T04:40:28.633Z,100.00
2019-03-12T04:42:57.835Z,100.00
2019-03-12T04:45:27.094Z,100.00
2019-03-12T04:47:56.277Z,100.00
2019-03-12T04:50:25.502Z,100.00
2019-03-12T04:52:54.701Z,100.00
2019-03-12T04:55:23.926Z,100.00
2019-03-12T04:57:53.120Z,100.00
2019-03-12T05:00:22.348Z,100.00
2019-03-12T05:02:51.561Z,100.00
2019-03-12T05:05:20.825Z,100.00
2019-03-12T05:07:50.037Z,100.00
2019-03-12T05:10:19.292Z,100.00
2019-03-12T05:12:48.503Z,100.00
2019-03-12T05:15:17.734Z,100.00
2019-03-12T05:17:47.466Z,100.00
2019-03-12T05:20:16.690Z,100.00
2019-03-12T05:22:46.056Z,100.00
2019-03-12T05:25:15.439Z,100.00
2019-03-12T05:27:44.777Z,100.00
2019-03-12T05:30:15.707Z,100.00
2019-03-12T05:32:45.218Z,100.00
2019-03-12T05:35:14.531Z,100.00
2019-03-12T05:37:43.887Z,100.00
2019-03-12T05:40:13.117Z,100.00
2019-03-12T05:42:42.353Z,100.00
2019-03-12T05:45:12.174Z,100.00
2019-03-12T05:47:41.412Z,100.00
2019-03-12T05:50:11.748Z,100.00
2019-03-12T05:52:41.349Z,100.00
2019-03-12T05:55:50.012Z,100.00
2019-03-12T05:58:19.240Z,100.00
2019-03-12T06:03:38.290Z,100.00
2019-03-12T06:06:07.525Z,100.00
2019-03-12T06:08:36.762Z,100.00
2019-03-12T06:11:06.390Z,100.00
2019-03-12T06:13:35.895Z,100.00
2019-03-12T06:16:05.118Z,100.00
2019-03-12T06:18:34.622Z,100.00
2019-03-12T06:21:03.817Z,100.00
2019-03-12T06:23:33.067Z,100.00
2019-03-12T06:26:02.268Z,100.00
2019-03-12T06:28:31.519Z,100.00
2019-03-12T06:31:20.688Z,100.00
2019-03-12T06:34:02.711Z,100.00
2019-03-12T06:36:50.829Z,100.00
2019-03-12T06:39:27.693Z,100.00
2019-03-12T06:42:54.229Z,100.00
2019-03-12T06:45:42.399Z,100.00
2019-03-12T06:48:17.374Z,100.00
2019-03-12T06:51:05.476Z,100.00
2019-03-12T06:53:53.642Z,100.00
2019-03-12T06:56:41.779Z,100.00
2019-03-12T06:59:29.954Z,100.00
2019-03-12T07:02:06.950Z,100.00
2019-03-12T07:04:55.122Z,100.00
2019-03-12T07:07:45.926Z,100.00
2019-03-12T07:10:33.832Z,100.00
2019-03-12T07:13:21.980Z,100.00
2019-03-12T07:16:10.149Z,100.00
2019-03-12T07:18:58.344Z,100.00
2019-03-12T07:21:46.456Z,100.00
2019-03-12T07:24:34.597Z,100.00
2019-03-12T07:27:42.157Z,100.00
2019-03-12T07:30:30.432Z,100.00
2019-03-12T07:33:18.614Z,100.00
2019-03-12T07:36:06.746Z,100.00
2019-03-12T07:38:44.155Z,100.00
2019-03-12T07:41:32.989Z,100.00
2019-03-12T07:44:12.467Z,100.00
2019-03-12T07:47:00.617Z,100.00
2019-03-12T07:49:48.857Z,100.00
2019-03-12T07:52:37.003Z,100.00
2019-03-12T07:55:25.257Z,100.00
2019-03-12T07:58:13.391Z,100.00
2019-03-12T08:01:00.949Z,100.00
2019-03-12T08:03:49.108Z,100.00
2019-03-12T08:06:37.333Z,100.00
2019-03-12T08:09:46.570Z,100.00
2019-03-12T08:12:34.195Z,100.00
2019-03-12T08:18:19.253Z,100.00
2019-03-12T08:21:07.894Z,100.00
2019-03-12T08:23:43.485Z,100.00
2019-03-12T08:26:32.439Z,100.00
2019-03-12T08:29:07.365Z,100.00
2019-03-12T08:40:13.108Z,100.00
2019-03-12T08:45:52.399Z,100.00
2019-03-12T08:48:40.544Z,100.00
2019-03-12T08:51:28.812Z,100.00
2019-03-12T08:54:16.943Z,100.00
2019-03-12T08:57:05.838Z,100.00
2019-03-12T09:02:50.618Z,100.00
2019-03-12T09:05:38.801Z,100.00
2019-03-12T09:08:46.318Z,100.00
2019-03-12T09:11:34.528Z,100.00
2019-03-12T09:14:22.657Z,100.00
2019-03-12T09:17:11.140Z,100.00
2019-03-12T09:19:59.373Z,100.00
2019-03-12T09:22:43.429Z,100.00
2019-03-12T09:25:32.174Z,100.00
2019-03-12T09:28:20.431Z,100.00
2019-03-12T09:31:08.614Z,100.00
2019-03-12T09:33:57.347Z,100.00
2019-03-12T09:36:45.591Z,100.00
2019-03-12T09:39:33.845Z,100.00
2019-03-12T09:42:22.306Z,100.00
2019-03-12T09:45:10.947Z,100.00
2019-03-12T09:48:00.799Z,100.00
2019-03-12T09:50:49.235Z,100.00
2019-03-12T09:53:58.142Z,100.00
2019-03-12T09:57:05.684Z,100.00
2019-03-12T09:59:53.891Z,100.00
2019-03-12T10:02:43.010Z,100.00
2019-03-12T10:08:41.859Z,100.00
2019-03-12T10:14:58.584Z,100.00
2019-03-12T10:18:06.846Z,100.00
2019-03-12T10:21:04.337Z,100.00
2019-03-12T10:26:48.265Z,100.00
2019-03-12T10:32:26.244Z,100.00
2019-03-12T10:35:03.158Z,100.00
2019-03-12T10:37:51.322Z,100.00
2019-03-12T10:40:39.816Z,100.00
2019-03-12T10:43:28.303Z,100.00
2019-03-12T10:46:04.364Z,100.00
2019-03-12T10:48:35.327Z,100.00
2019-03-12T10:51:13.697Z,100.00
2019-03-12T10:53:44.162Z,100.00
2019-03-12T10:56:13.475Z,100.00
2019-03-12T10:58:44.350Z,100.00
2019-03-12T11:01:15.295Z,100.00
2019-03-12T11:03:48.350Z,100.00
2019-03-12T11:06:18.936Z,100.00
2019-03-12T11:23:06.365Z,100.00
2019-03-12T11:28:30.618Z,100.00
2019-03-12T11:31:20.018Z,100.00
2019-03-12T11:36:50.551Z,100.00
2019-03-12T11:39:20.081Z,100.00
2019-03-12T11:41:49.499Z,100.00
2019-03-12T11:48:49.144Z,100.00
2019-03-12T11:55:04.123Z,100.00
2019-03-12T11:57:33.451Z,100.00
2019-03-12T12:00:40.601Z,100.00
2019-03-12T12:12:43.534Z,100.00
2019-03-12T12:15:13.469Z,100.00
2019-03-12T12:18:15.917Z,100.00
2019-03-12T12:34:16.693Z,100.00
2019-03-12T12:37:28.812Z,100.00
2019-03-12T12:39:58.146Z,100.00
2019-03-12T12:47:41.096Z,100.00
2019-03-12T13:12:38.429Z,100.00
2019-03-12T13:23:15.192Z,100.00
2019-03-12T13:25:44.793Z,100.00
2019-03-12T13:28:14.226Z,100.00
2019-03-12T13:52:12.041Z,100.00
2019-03-12T13:54:43.428Z,100.00
2019-03-12T13:57:12.890Z,100.00
2019-03-12T13:59:42.271Z,100.00
2019-03-12T14:02:12.065Z,100.00
2019-03-12T14:04:41.379Z,100.00
2019-03-12T14:10:00.419Z,100.00
2019-03-12T14:12:29.876Z,100.00
2019-03-12T14:14:59.158Z,100.00
2019-03-12T14:17:29.092Z,100.00
2019-03-12T14:20:37.758Z,100.00
2019-03-12T14:23:07.111Z,100.00
2019-03-12T14:28:32.113Z,100.00
2019-03-12T14:31:01.368Z,100.00
2019-03-12T14:33:30.889Z,100.00
2019-03-12T14:36:00.272Z,100.00
2019-03-12T14:38:29.516Z,100.00
2019-03-12T14:40:59.128Z,100.00
2019-03-12T14:43:28.564Z,100.00
2019-03-12T14:45:57.769Z,97.70
2019-03-12T14:54:23.273Z,100.00
2019-03-12T14:56:52.514Z,100.00
2019-03-12T14:59:21.772Z,100.00
2019-03-12T15:01:51.435Z,100.00
2019-03-12T15:04:20.682Z,100.00
2019-03-12T15:06:50.114Z,99.89
2019-03-12T15:09:19.603Z,98.53
2019-03-12T15:14:45.241Z,100.00
2019-03-12T15:17:14.483Z,94.69
2019-03-12T15:19:43.719Z,92.78
2019-03-12T15:22:13.020Z,92.37
2019-03-12T15:24:42.229Z,94.31
2019-03-12T15:27:11.478Z,90.08
2019-03-12T15:29:40.683Z,92.01
2019-03-12T15:32:10.258Z,91.26
2019-03-12T15:34:39.511Z,92.98
2019-03-12T15:37:08.810Z,93.84
2019-03-12T15:39:38.111Z,94.71
2019-03-12T15:42:07.342Z,91.05
2019-03-12T15:44:36.619Z,90.10
2019-03-12T15:47:08.820Z,88.56
2019-03-12T15:49:37.877Z,93.07
2019-03-12T15:52:08.735Z,94.58
2019-03-12T15:54:38.068Z,93.52
2019-03-12T15:57:07.472Z,85.84
2019-03-12T15:59:37.587Z,86.69
2019-03-12T16:02:06.791Z,88.52
2019-03-12T16:04:36.049Z,88.32
2019-03-12T16:07:05.291Z,87.11
2019-03-12T16:09:34.607Z,91.22
2019-03-12T16:12:03.849Z,92.58
2019-03-12T16:14:33.128Z,93.85
2019-03-12T16:17:02.316Z,90.47
2019-03-12T16:19:31.627Z,92.79
2019-03-12T16:22:00.935Z,92.55
2019-03-12T16:24:30.658Z,95.10
2019-03-12T16:27:03.141Z,94.37
2019-03-12T16:32:07.067Z,100.00
2019-03-12T16:34:55.497Z,96.89
2019-03-12T16:37:26.659Z,91.67
2019-03-12T16:40:14.949Z,94.00
2019-03-12T16:43:03.536Z,93.29
2019-03-12T16:45:32.822Z,93.19
2019-03-12T16:48:02.079Z,93.99
2019-03-12T16:51:16.414Z,94.56
2019-03-12T16:53:45.797Z,91.79
2019-03-12T16:56:15.072Z,96.44
2019-03-12T16:58:44.421Z,95.28
2019-03-12T17:01:13.729Z,97.73
2019-03-12T17:03:43.023Z,97.50
2019-03-12T17:06:13.241Z,96.64
2019-03-12T17:11:53.869Z,95.18
2019-03-12T17:17:15.331Z,93.71
2019-03-12T17:19:44.664Z,94.26
2019-03-12T17:22:13.931Z,90.30
2019-03-12T17:24:43.597Z,86.61
2019-03-12T17:27:12.916Z,92.27
2019-03-12T17:32:30.457Z,87.61
2019-03-12T17:35:20.499Z,87.37
2019-03-12T17:37:49.817Z,87.33
2019-03-12T17:40:20.181Z,92.20
2019-03-12T17:42:49.470Z,89.65
2019-03-12T17:45:20.003Z,85.87
2019-03-12T17:47:49.303Z,85.53
2019-03-12T17:50:18.540Z,88.47
2019-03-12T17:53:07.462Z,87.44
2019-03-12T17:55:36.690Z,90.20
2019-03-12T17:58:06.538Z,88.13
2019-03-12T18:03:25.882Z,89.84
2019-03-12T18:05:55.276Z,87.76
2019-03-12T18:08:24.679Z,89.74
2019-03-12T18:10:54.462Z,89.36
2019-03-12T18:13:43.662Z,89.31
2019-03-12T18:16:13.048Z,89.89
2019-03-12T18:18:44.434Z,85.67
2019-03-12T18:24:47.761Z,82.78
2019-03-12T18:27:17.150Z,83.31
2019-03-12T18:29:49.100Z,83.47
2019-03-12T18:37:50.860Z,90.31
2019-03-12T18:40:20.370Z,91.24
2019-03-12T18:42:49.873Z,91.77
2019-03-12T18:45:44.156Z,94.26
2019-03-12T18:48:13.662Z,94.51
2019-03-12T18:50:42.892Z,91.30
2019-03-12T18:53:12.205Z,91.26
2019-03-12T18:56:02.184Z,86.86
2019-03-12T18:58:31.436Z,85.79
2019-03-12T19:01:12.320Z,87.39
2019-03-12T19:03:41.569Z,89.70
2019-03-12T19:06:10.834Z,87.25
2019-03-12T19:08:59.455Z,86.89
2019-03-12T19:11:28.640Z,91.25
2019-03-12T19:13:58.302Z,92.45
2019-03-12T19:16:27.896Z,90.49
2019-03-12T19:18:57.415Z,91.61
2019-03-12T19:21:26.742Z,90.46
2019-03-12T19:23:56.001Z,91.54
2019-03-12T19:26:25.295Z,89.60
2019-03-12T19:28:54.572Z,91.01
2019-03-12T19:31:42.719Z,89.80
2019-03-12T19:36:51.572Z,88.27
2019-03-12T19:39:21.258Z,88.76
2019-03-12T19:41:50.856Z,90.90
2019-03-12T19:44:20.105Z,89.64
2019-03-12T19:46:49.387Z,88.42
2019-03-12T19:49:18.697Z,89.35
2019-03-12T19:51:47.925Z,87.81
2019-03-12T19:54:17.636Z,89.25
2019-03-12T19:56:46.952Z,88.30
2019-03-12T19:59:16.674Z,90.23
2019-03-12T20:01:46.733Z,89.12
2019-03-12T20:04:16.258Z,90.02
2019-03-12T20:06:45.619Z,89.33
2019-03-12T20:09:56.121Z,90.50
2019-03-12T20:13:03.402Z,93.38
2019-03-12T20:16:11.018Z,97.50
2019-03-12T20:19:18.651Z,100.00
2019-03-12T20:22:35.461Z,100.00
2019-03-12T20:25:42.900Z,100.00
2019-03-12T20:28:50.271Z,100.00
2019-03-12T20:31:57.757Z,100.00
2019-03-12T20:35:05.412Z,100.00
2019-03-12T20:38:13.117Z,100.00
2019-03-12T20:41:20.737Z,100.00
2019-03-12T20:44:28.054Z,100.00
2019-03-12T20:47:35.538Z,100.00
2019-03-12T20:50:42.864Z,100.00
2019-03-12T20:54:00.469Z,100.00
2019-03-12T20:57:07.762Z,100.00
2019-03-12T21:00:15.306Z,100.00
2019-03-12T21:03:24.918Z,100.00
2019-03-12T21:06:40.892Z,100.00
2019-03-12T21:09:48.225Z,100.00
2019-03-12T21:12:57.175Z,100.00
2019-03-12T21:16:04.471Z,100.00
2019-03-12T21:19:12.016Z,100.00
2019-03-12T21:22:19.888Z,100.00
2019-03-12T21:25:27.171Z,100.00
2019-03-12T21:28:53.705Z,100.00
2019-03-12T21:31:23.405Z,100.00
2019-03-12T21:33:52.618Z,100.00
2019-03-12T21:36:22.991Z,100.00
2019-03-12T21:38:52.237Z,100.00
2019-03-12T21:41:21.933Z,100.00
2019-03-12T21:43:51.768Z,100.00
2019-03-12T21:46:21.749Z,100.00
2019-03-12T21:48:51.697Z,100.00
2019-03-12T21:51:20.982Z,100.00
2019-03-12T21:53:50.488Z,100.00
2019-03-12T21:56:38.807Z,100.00
2019-03-12T21:59:08.002Z,100.00
2019-03-12T22:01:37.249Z,100.00
2019-03-12T22:04:06.566Z,100.00
2019-03-12T22:06:35.829Z,100.00
2019-03-12T22:12:17.702Z,100.00
2019-03-12T22:14:47.292Z,100.00
2019-03-12T22:22:46.928Z,100.00
2019-03-12T22:25:16.367Z,100.00
2019-03-12T22:27:45.928Z,100.00
2019-03-12T22:30:18.056Z,100.00
2019-03-12T22:32:47.428Z,100.00
2019-03-12T22:35:16.703Z,100.00
2019-03-12T22:37:45.915Z,100.00
2019-03-12T22:40:15.237Z,100.00
2019-03-12T22:42:44.564Z,100.00
2019-03-12T22:45:16.462Z,100.00
2019-03-12T22:47:46.025Z,100.00
2019-03-12T22:50:15.515Z,100.00
2019-03-12T22:52:48.125Z,100.00
2019-03-12T22:55:17.502Z,100.00
2019-03-12T22:57:47.084Z,100.00
2019-03-12T23:00:55.892Z,100.00
2019-03-12T23:03:25.110Z,100.00
2019-03-12T23:05:54.356Z,100.00
2019-03-12T23:08:42.686Z,100.00
2019-03-12T23:14:20.602Z,100.00
2019-03-12T23:16:50.187Z,100.00
2019-03-12T23:19:19.719Z,100.00
2019-03-12T23:21:48.904Z,100.00
2019-03-12T23:24:18.144Z,100.00
2019-03-12T23:26:47.350Z,100.00
2019-03-12T23:29:16.580Z,100.00
2019-03-12T23:31:46.049Z,100.00
2019-03-12T23:34:15.274Z,100.00
2019-03-12T23:36:44.599Z,100.00
2019-03-12T23:39:16.212Z,100.00
2019-03-12T23:41:45.476Z,100.00
2019-03-12T23:44:14.824Z,100.00
2019-03-12T23:46:44.036Z,100.00
2019-03-12T23:49:13.247Z,100.00
2019-03-12T23:51:42.457Z,100.00
2019-03-12T23:54:51.360Z,100.00
2019-03-12T23:57:20.821Z,100.00
2019-03-12T23:59:50.410Z,100.00
